createdAt,value
2018-07-06T00:01:56.096Z,16.50
2018-07-06T00:04:35.801Z,16.50
2018-07-06T00:07:15.529Z,16.50
2018-07-06T00:09:55.196Z,16.40
2018-07-06T00:12:34.897Z,16.40
2018-07-06T00:15:14.578Z,16.50
2018-07-06T00:17:54.189Z,16.40
2018-07-06T00:20:33.961Z,16.40
2018-07-06T00:23:13.475Z,16.30
2018-07-06T00:25:53.147Z,16.30
2018-07-06T00:28:32.802Z,16.40
2018-07-06T00:33:46.040Z,16.30
2018-07-06T00:36:25.724Z,16.30
2018-07-06T00:39:05.734Z,16.30
2018-07-06T00:41:45.453Z,16.20
2018-07-06T00:44:25.117Z,16.20
2018-07-06T00:47:04.723Z,16.30
2018-07-06T00:49:44.326Z,16.30
2018-07-06T00:52:23.913Z,16.20
2018-07-06T00:55:03.609Z,16.30
2018-07-06T00:57:48.714Z,16.20
2018-07-06T01:00:28.810Z,16.30
2018-07-06T01:03:08.860Z,16.40
2018-07-06T01:05:50.021Z,16.30
2018-07-06T01:08:30.461Z,16.30
2018-07-06T01:11:10.562Z,16.30
2018-07-06T01:13:50.363Z,16.20
2018-07-06T01:16:30.311Z,16.30
2018-07-06T01:19:10.131Z,16.30
2018-07-06T01:21:49.874Z,16.20
2018-07-06T01:24:29.653Z,16.20
2018-07-06T01:27:09.382Z,16.10
2018-07-06T01:29:49.160Z,16.10
2018-07-06T01:32:28.863Z,16.00
2018-07-06T01:35:09.260Z,16.10
2018-07-06T01:37:49.613Z,16.00
2018-07-06T01:40:29.270Z,16.00
2018-07-06T01:43:08.915Z,16.00
2018-07-06T01:45:48.574Z,16.00
2018-07-06T01:48:28.450Z,16.00
2018-07-06T01:51:08.173Z,16.00
2018-07-06T01:53:48.030Z,15.90
2018-07-06T01:56:27.756Z,16.00
2018-07-06T01:59:07.561Z,16.00
2018-07-06T02:01:47.259Z,16.00
2018-07-06T02:04:27.079Z,16.00
2018-07-06T02:07:06.921Z,16.00
2018-07-06T02:09:46.760Z,16.10
2018-07-06T02:12:26.372Z,16.00
2018-07-06T02:15:06.517Z,16.00
2018-07-06T02:17:46.080Z,16.00
2018-07-06T02:20:25.747Z,16.00
2018-07-06T02:23:05.610Z,15.90
2018-07-06T02:25:45.395Z,15.90
2018-07-06T02:28:25.405Z,16.00
2018-07-06T02:31:05.157Z,15.90
2018-07-06T02:33:45.100Z,16.00
2018-07-06T02:36:24.933Z,16.00
2018-07-06T02:39:05.346Z,16.00
2018-07-06T02:41:45.475Z,15.90
2018-07-06T02:44:25.226Z,15.90
2018-07-06T02:47:04.912Z,15.90
2018-07-06T02:49:44.701Z,15.90
2018-07-06T02:52:24.453Z,15.90
2018-07-06T02:55:04.115Z,15.90
2018-07-06T02:57:43.824Z,15.90
2018-07-06T03:00:23.533Z,15.90
2018-07-06T03:03:03.235Z,16.00
2018-07-06T03:05:42.870Z,15.90
2018-07-06T03:08:22.762Z,15.90
2018-07-06T03:11:02.518Z,16.00
2018-07-06T03:13:42.496Z,16.00
2018-07-06T03:16:22.085Z,16.10
2018-07-06T03:19:01.826Z,16.00
2018-07-06T03:21:41.610Z,16.00
2018-07-06T03:24:21.272Z,16.00
2018-07-06T03:29:34.797Z,16.00
2018-07-06T03:32:14.510Z,16.00
2018-07-06T03:34:54.286Z,16.00
2018-07-06T03:37:33.943Z,16.00
2018-07-06T03:40:13.635Z,16.00
2018-07-06T03:42:53.447Z,16.00
2018-07-06T03:45:33.074Z,16.00
2018-07-06T03:48:12.922Z,16.10
2018-07-06T03:50:52.637Z,16.00
2018-07-06T03:53:32.513Z,16.00
2018-07-06T03:56:12.394Z,16.10
2018-07-06T03:58:52.181Z,16.10
2018-07-06T04:01:32.178Z,16.20
2018-07-06T04:04:11.856Z,16.10
2018-07-06T04:06:51.581Z,16.10
2018-07-06T04:09:31.342Z,16.00
2018-07-06T04:12:11.151Z,16.10
2018-07-06T04:14:50.787Z,16.10
2018-07-06T04:17:30.519Z,16.10
2018-07-06T04:20:10.254Z,16.10
2018-07-06T04:22:50.147Z,16.10
2018-07-06T04:25:30.101Z,16.10
2018-07-06T04:28:09.887Z,16.10
2018-07-06T04:30:49.621Z,16.10
2018-07-06T04:33:29.351Z,16.20
2018-07-06T04:36:09.127Z,16.20
2018-07-06T04:38:48.843Z,16.20
2018-07-06T04:41:28.567Z,16.20
2018-07-06T04:44:08.445Z,16.20
2018-07-06T04:46:48.685Z,16.20
2018-07-06T04:49:28.307Z,16.30
2018-07-06T04:52:07.902Z,16.40
2018-07-06T04:54:47.632Z,16.40
2018-07-06T04:57:27.305Z,16.50
2018-07-06T05:00:07.142Z,16.40
2018-07-06T05:02:46.905Z,16.40
2018-07-06T05:05:26.574Z,16.40
2018-07-06T05:08:06.395Z,16.50
2018-07-06T05:10:45.998Z,16.50
2018-07-06T05:13:25.667Z,16.50
2018-07-06T05:16:05.420Z,16.50
2018-07-06T05:18:45.274Z,16.50
2018-07-06T05:21:25.063Z,16.50
2018-07-06T05:24:04.803Z,16.50
2018-07-06T05:26:44.615Z,16.50
2018-07-06T05:29:24.290Z,16.60
2018-07-06T05:32:03.956Z,16.70
2018-07-06T05:34:43.738Z,16.70
2018-07-06T05:37:23.636Z,16.80
2018-07-06T05:40:03.299Z,16.70
2018-07-06T05:42:43.095Z,16.80
2018-07-06T05:45:22.882Z,16.80
2018-07-06T05:48:02.479Z,16.80
2018-07-06T05:50:42.187Z,16.90
2018-07-06T05:53:21.879Z,17.00
2018-07-06T05:56:01.705Z,17.20
2018-07-06T05:58:41.394Z,17.20
2018-07-06T06:01:21.152Z,17.20
2018-07-06T06:04:01.012Z,17.20
2018-07-06T06:06:40.800Z,17.20
2018-07-06T06:09:08.127Z,17.40
2018-07-06T06:11:36.626Z,17.30
2018-07-06T06:14:05.262Z,17.30
2018-07-06T06:16:33.811Z,17.10
2018-07-06T06:19:02.269Z,17.10
2018-07-06T06:21:30.905Z,17.10
2018-07-06T06:23:59.376Z,17.10
2018-07-06T06:26:31.007Z,17.20
2018-07-06T06:28:59.677Z,17.20
2018-07-06T06:31:29.157Z,17.30
2018-07-06T06:33:59.850Z,17.20
2018-07-06T06:36:29.025Z,17.20
2018-07-06T06:38:57.592Z,17.40
2018-07-06T06:41:26.485Z,17.40
2018-07-06T06:43:55.025Z,17.50
2018-07-06T06:46:23.617Z,17.50
2018-07-06T06:48:52.261Z,17.40
2018-07-06T06:51:20.830Z,17.40
2018-07-06T06:53:49.357Z,17.50
2018-07-06T06:56:18.155Z,17.50
2018-07-06T06:58:46.769Z,17.50
2018-07-06T07:01:15.262Z,17.40
2018-07-06T07:03:43.962Z,17.40
2018-07-06T07:06:12.588Z,17.40
2018-07-06T07:08:41.209Z,17.30
2018-07-06T07:11:09.816Z,17.30
2018-07-06T07:13:38.535Z,17.30
2018-07-06T07:16:07.066Z,17.30
2018-07-06T07:18:35.665Z,17.20
2018-07-06T07:21:04.393Z,17.40
2018-07-06T07:23:32.999Z,17.40
2018-07-06T07:26:01.595Z,17.40
2018-07-06T07:28:30.159Z,17.50
2018-07-06T07:30:58.779Z,17.60
2018-07-06T07:33:27.380Z,17.60
2018-07-06T07:35:56.397Z,17.60
2018-07-06T07:38:24.951Z,17.60
2018-07-06T07:40:53.597Z,17.60
2018-07-06T07:43:22.150Z,17.70
2018-07-06T07:45:50.659Z,17.70
2018-07-06T07:48:19.158Z,17.70
2018-07-06T07:50:59.081Z,17.80
2018-07-06T07:53:38.922Z,17.90
2018-07-06T07:58:35.723Z,18.10
2018-07-06T08:01:04.397Z,18.10
2018-07-06T08:03:32.876Z,18.20
2018-07-06T08:06:01.480Z,18.30
2018-07-06T08:08:30.061Z,18.40
2018-07-06T08:10:58.675Z,18.60
2018-07-06T08:13:27.275Z,18.70
2018-07-06T08:15:55.823Z,18.70
2018-07-06T08:18:24.329Z,18.70
2018-07-06T08:20:52.807Z,18.80
2018-07-06T08:23:21.284Z,18.80
2018-07-06T08:25:49.834Z,18.90
2018-07-06T08:28:18.347Z,18.90
2018-07-06T08:30:46.930Z,19.00
2018-07-06T08:33:15.965Z,19.00
2018-07-06T08:38:18.259Z,19.10
2018-07-06T08:43:15.050Z,19.30
2018-07-06T08:45:43.596Z,19.50
2018-07-06T08:50:40.200Z,19.30
2018-07-06T08:53:08.719Z,19.60
2018-07-06T08:55:37.271Z,19.80
2018-07-06T08:58:05.859Z,19.80
2018-07-06T09:00:34.357Z,19.80
2018-07-06T09:03:02.973Z,19.80
2018-07-06T09:07:59.624Z,19.90
2018-07-06T09:10:28.078Z,20.40
2018-07-06T09:12:56.673Z,20.80
2018-07-06T09:15:25.204Z,21.30
2018-07-06T09:17:53.721Z,21.90
2018-07-06T09:20:22.193Z,22.50
2018-07-06T09:22:50.803Z,23.30
2018-07-06T09:25:19.636Z,24.20
2018-07-06T09:27:48.035Z,24.90
2018-07-06T09:30:16.590Z,25.90
2018-07-06T09:32:45.106Z,26.50
2018-07-06T09:35:13.922Z,26.60
2018-07-06T09:37:42.567Z,26.40
2018-07-06T09:40:11.080Z,26.40
2018-07-06T09:42:39.555Z,26.80
2018-07-06T09:45:08.108Z,27.50
2018-07-06T09:47:36.587Z,27.90
2018-07-06T09:50:05.171Z,26.70
2018-07-06T09:52:33.727Z,27.10
2018-07-06T09:55:02.312Z,26.80
2018-07-06T09:57:30.809Z,27.70
2018-07-06T09:59:59.295Z,29.70
2018-07-06T10:02:27.807Z,30.00
2018-07-06T10:04:56.358Z,30.50
2018-07-06T10:07:24.847Z,29.40
2018-07-06T10:09:53.473Z,28.40
2018-07-06T10:12:21.913Z,26.80
2018-07-06T10:17:18.583Z,25.20
2018-07-06T10:19:47.343Z,25.60
2018-07-06T10:22:15.850Z,25.00
2018-07-06T10:24:44.332Z,25.00
2018-07-06T10:27:12.803Z,26.70
2018-07-06T10:29:55.980Z,28.70
2018-07-06T10:32:25.946Z,30.20
2018-07-06T10:34:54.816Z,29.40
2018-07-06T10:37:23.864Z,29.70
2018-07-06T10:39:52.883Z,29.60
2018-07-06T10:42:21.331Z,31.30
2018-07-06T10:44:49.966Z,30.80
2018-07-06T10:47:18.556Z,30.60
2018-07-06T10:49:47.101Z,29.60
2018-07-06T10:52:16.443Z,28.80
2018-07-06T10:54:45.566Z,28.60
2018-07-06T10:57:14.189Z,29.50
2018-07-06T10:59:42.813Z,29.80
2018-07-06T11:02:11.536Z,30.70
2018-07-06T11:04:40.017Z,32.00
2018-07-06T11:07:08.855Z,33.20
2018-07-06T11:09:37.427Z,32.30
2018-07-06T11:12:06.275Z,31.50
2018-07-06T11:17:03.395Z,29.40
2018-07-06T11:19:31.887Z,28.60
2018-07-06T11:22:00.346Z,27.90
2018-07-06T11:24:28.822Z,28.00
2018-07-06T11:26:57.381Z,27.90
2018-07-06T11:31:54.031Z,27.90
2018-07-06T11:34:22.728Z,27.70
2018-07-06T11:36:51.263Z,27.20
2018-07-06T11:39:19.843Z,27.00
2018-07-06T11:41:48.350Z,26.80
2018-07-06T11:44:17.031Z,26.90
2018-07-06T11:46:45.654Z,27.50
2018-07-06T11:49:14.346Z,27.60
2018-07-06T11:51:42.871Z,27.10
2018-07-06T11:54:11.505Z,26.60
2018-07-06T11:59:08.174Z,26.60
2018-07-06T12:01:36.673Z,27.10
2018-07-06T12:04:05.371Z,27.40
2018-07-06T12:06:33.757Z,27.70
2018-07-06T12:09:02.394Z,27.30
2018-07-06T12:11:30.880Z,27.10
2018-07-06T12:13:59.350Z,27.30
2018-07-06T12:16:27.888Z,27.70
2018-07-06T12:18:56.411Z,27.50
2018-07-06T12:21:24.938Z,26.90
2018-07-06T12:23:53.442Z,26.30
2018-07-06T12:26:22.041Z,26.00
2018-07-06T12:28:50.551Z,26.20
2018-07-06T12:31:19.051Z,26.40
2018-07-06T12:33:48.191Z,26.70
2018-07-06T12:36:16.765Z,26.40
2018-07-06T12:38:45.295Z,26.10
2018-07-06T12:41:13.991Z,25.80
2018-07-06T12:43:42.504Z,25.80
2018-07-06T12:46:11.054Z,26.20
2018-07-06T12:48:39.545Z,26.10
2018-07-06T12:51:08.164Z,26.20
2018-07-06T12:53:36.684Z,26.20
2018-07-06T12:56:05.338Z,26.70
2018-07-06T12:58:34.048Z,27.00
2018-07-06T13:01:02.532Z,27.00
2018-07-06T13:03:30.993Z,27.10
2018-07-06T13:05:59.610Z,27.20
2018-07-06T13:08:28.180Z,27.20
2018-07-06T13:10:56.672Z,27.30
2018-07-06T13:13:25.258Z,27.30
2018-07-06T13:15:53.829Z,27.00
2018-07-06T13:18:22.319Z,26.40
2018-07-06T13:20:50.820Z,26.60
2018-07-06T13:23:19.289Z,26.70
2018-07-06T13:25:47.879Z,27.10
2018-07-06T13:28:16.383Z,27.00
2018-07-06T13:30:44.821Z,26.50
2018-07-06T13:33:13.428Z,26.40
2018-07-06T13:35:42.295Z,26.70
2018-07-06T13:38:10.828Z,26.60
2018-07-06T13:40:39.391Z,26.60
2018-07-06T13:43:08.005Z,26.70
2018-07-06T13:48:04.848Z,26.70
2018-07-06T13:50:33.497Z,27.00
2018-07-06T13:53:02.202Z,27.30
2018-07-06T13:55:30.683Z,27.50
2018-07-06T13:57:59.170Z,27.50
2018-07-06T14:00:27.701Z,27.30
2018-07-06T14:02:56.250Z,27.20
2018-07-06T14:05:25.034Z,27.10
2018-07-06T14:07:53.598Z,27.10
2018-07-06T14:10:22.144Z,27.30
2018-07-06T14:12:50.708Z,27.60
2018-07-06T14:15:19.213Z,27.80
2018-07-06T14:17:47.717Z,27.60
2018-07-06T14:20:16.187Z,27.40
2018-07-06T14:22:44.706Z,27.60
2018-07-06T14:25:13.343Z,27.70
2018-07-06T14:27:41.812Z,27.50
2018-07-06T14:30:10.377Z,27.60
2018-07-06T14:32:38.878Z,27.70
2018-07-06T14:35:07.373Z,27.60
2018-07-06T14:37:35.857Z,27.40
2018-07-06T14:40:04.399Z,27.40
2018-07-06T14:42:33.199Z,27.10
2018-07-06T14:45:01.743Z,26.80
2018-07-06T14:47:30.380Z,26.70
2018-07-06T14:49:58.886Z,26.70
2018-07-06T14:52:27.404Z,26.90
2018-07-06T14:54:56.223Z,26.70
2018-07-06T14:57:24.712Z,26.20
2018-07-06T14:59:53.324Z,26.10
2018-07-06T15:02:21.815Z,26.20
2018-07-06T15:04:50.463Z,26.30
2018-07-06T15:07:18.966Z,26.50
2018-07-06T15:09:47.546Z,26.60
2018-07-06T15:12:16.050Z,26.50
2018-07-06T15:14:44.907Z,26.70
2018-07-06T15:17:13.402Z,26.80
2018-07-06T15:19:42.071Z,26.90
2018-07-06T15:22:10.539Z,27.10
2018-07-06T15:24:39.020Z,27.10
2018-07-06T15:27:07.541Z,27.00
2018-07-06T15:29:36.167Z,26.80
2018-07-06T15:32:04.726Z,26.70
2018-07-06T15:34:33.662Z,26.60
2018-07-06T15:37:02.303Z,26.40
2018-07-06T15:39:30.993Z,26.30
2018-07-06T15:41:59.585Z,26.20
2018-07-06T15:44:28.125Z,26.20
2018-07-06T15:46:56.603Z,26.10
2018-07-06T15:49:25.121Z,26.20
2018-07-06T15:51:53.644Z,26.20
2018-07-06T15:54:22.447Z,26.20
2018-07-06T15:56:51.218Z,26.00
2018-07-06T15:59:19.769Z,26.00
2018-07-06T16:01:48.225Z,26.00
2018-07-06T16:04:16.743Z,25.90
2018-07-06T16:06:45.372Z,26.00
2018-07-06T16:09:14.114Z,25.80
2018-07-06T16:11:42.774Z,25.80
2018-07-06T16:16:39.485Z,25.70
2018-07-06T16:19:08.100Z,25.70
2018-07-06T16:21:37.440Z,25.50
2018-07-06T16:24:06.232Z,25.50
2018-07-06T16:26:34.705Z,25.70
2018-07-06T16:29:03.691Z,25.80
2018-07-06T16:31:32.203Z,25.90
2018-07-06T16:36:28.877Z,25.70
2018-07-06T16:38:57.391Z,25.50
2018-07-06T16:41:25.882Z,25.30
2018-07-06T16:43:54.519Z,25.30
2018-07-06T16:46:23.116Z,24.90
2018-07-06T16:48:51.709Z,24.80
2018-07-06T16:51:20.154Z,24.60
2018-07-06T16:53:48.645Z,24.50
2018-07-06T16:56:17.112Z,24.40
2018-07-06T16:58:45.660Z,24.30
2018-07-06T17:01:14.208Z,24.20
2018-07-06T17:03:42.764Z,24.10
2018-07-06T17:06:11.330Z,24.00
2018-07-06T17:08:40.093Z,23.80
2018-07-06T17:11:08.727Z,23.70
2018-07-06T17:13:37.511Z,23.50
2018-07-06T17:16:06.055Z,23.40
2018-07-06T17:18:34.576Z,23.30
2018-07-06T17:21:03.158Z,23.20
2018-07-06T17:23:31.718Z,23.20
2018-07-06T17:28:28.338Z,23.00
2018-07-06T17:30:56.989Z,22.90
2018-07-06T17:33:25.602Z,22.70
2018-07-06T17:35:54.108Z,22.70
2018-07-06T17:38:22.640Z,22.60
2018-07-06T17:40:51.198Z,22.60
2018-07-06T17:43:19.730Z,22.60
2018-07-06T17:45:48.688Z,22.50
2018-07-06T17:48:17.178Z,22.50
2018-07-06T17:50:45.649Z,22.50
2018-07-06T17:53:14.195Z,22.40
2018-07-06T17:55:42.732Z,22.30
2018-07-06T17:58:11.240Z,22.20
2018-07-06T18:00:39.784Z,22.20
2018-07-06T18:03:08.389Z,22.00
2018-07-06T18:05:36.878Z,22.00
2018-07-06T18:08:05.818Z,21.90
2018-07-06T18:10:34.518Z,21.70
2018-07-06T18:15:31.575Z,21.50
2018-07-06T18:18:00.084Z,21.40
2018-07-06T18:20:28.785Z,21.30
2018-07-06T18:22:57.545Z,20.90
2018-07-06T18:25:26.053Z,20.70
2018-07-06T18:27:54.654Z,20.50
2018-07-06T18:30:23.169Z,20.30
2018-07-06T18:32:51.861Z,20.10
2018-07-06T18:35:20.384Z,20.10
2018-07-06T18:37:48.947Z,20.10
2018-07-06T18:40:17.807Z,20.10
2018-07-06T18:42:47.280Z,20.20
2018-07-06T18:45:15.803Z,20.10
2018-07-06T18:47:44.344Z,20.10
2018-07-06T18:50:12.851Z,20.00
2018-07-06T18:52:41.405Z,20.00
2018-07-06T18:55:09.923Z,19.90
2018-07-06T18:57:38.944Z,20.00
2018-07-06T19:00:07.955Z,19.90
2018-07-06T19:02:36.852Z,20.00
2018-07-06T19:05:05.730Z,20.00
2018-07-06T19:07:34.245Z,19.80
2018-07-06T19:10:03.307Z,19.20
2018-07-06T19:12:31.857Z,18.60
2018-07-06T19:15:00.388Z,18.10
2018-07-06T19:17:28.870Z,17.70
2018-07-06T19:19:57.742Z,17.40
2018-07-06T19:22:26.253Z,17.10
2018-07-06T19:24:54.715Z,17.00
2018-07-06T19:27:23.256Z,16.90
2018-07-06T19:29:52.001Z,16.80
2018-07-06T19:34:48.846Z,16.60
2018-07-06T19:37:17.372Z,16.50
2018-07-06T19:39:45.890Z,16.60
2018-07-06T19:42:15.338Z,16.70
2018-07-06T19:44:43.847Z,16.70
2018-07-06T19:47:12.354Z,16.90
2018-07-06T19:49:42.175Z,16.90
2018-07-06T19:52:10.776Z,17.00
2018-07-06T19:54:39.392Z,16.90
2018-07-06T19:57:08.046Z,16.90
2018-07-06T19:59:36.578Z,17.00
2018-07-06T20:02:05.610Z,17.00
2018-07-06T20:04:34.402Z,17.00
2018-07-06T20:07:03.150Z,17.00
2018-07-06T20:09:31.682Z,16.90
2018-07-06T20:12:00.310Z,16.80
2018-07-06T20:14:29.053Z,16.90
2018-07-06T20:16:57.606Z,16.80
2018-07-06T20:19:26.189Z,16.80
2018-07-06T20:21:54.787Z,16.80
2018-07-06T20:24:23.433Z,16.80
2018-07-06T20:26:52.544Z,16.80
2018-07-06T20:29:21.032Z,16.70
2018-07-06T20:31:49.634Z,16.70
2018-07-06T20:34:18.269Z,16.70
2018-07-06T20:36:46.748Z,16.60
2018-07-06T20:39:15.311Z,16.60
2018-07-06T20:41:43.949Z,16.60
2018-07-06T20:44:12.557Z,16.60
2018-07-06T20:46:41.882Z,16.50
2018-07-06T20:49:10.378Z,16.40
2018-07-06T20:51:38.934Z,16.40
2018-07-06T20:54:07.542Z,16.30
2018-07-06T20:56:36.169Z,16.40
2018-07-06T20:59:04.954Z,16.30
2018-07-06T21:01:35.082Z,16.30
2018-07-06T21:04:03.608Z,16.20
2018-07-06T21:06:32.256Z,16.20
2018-07-06T21:09:00.746Z,16.10
2018-07-06T21:11:29.349Z,16.10
2018-07-06T21:13:57.983Z,16.10
2018-07-06T21:16:30.098Z,16.00
2018-07-06T21:18:59.512Z,16.10
2018-07-06T21:21:28.122Z,16.00
2018-07-06T21:23:56.602Z,16.00
2018-07-06T21:26:25.092Z,16.00
2018-07-06T21:28:53.838Z,15.90
2018-07-06T21:31:22.375Z,16.00
2018-07-06T21:33:50.924Z,15.90
2018-07-06T21:36:19.466Z,15.90
2018-07-06T21:38:48.169Z,15.90
2018-07-06T21:41:16.755Z,16.00
2018-07-06T21:43:45.232Z,15.90
2018-07-06T21:46:13.799Z,15.90
2018-07-06T21:48:42.389Z,15.80
2018-07-06T21:51:10.864Z,15.80
2018-07-06T21:53:39.414Z,15.80
2018-07-06T21:56:08.157Z,15.80
2018-07-06T21:58:36.679Z,15.80
2018-07-06T22:01:05.265Z,15.80
2018-07-06T22:03:33.814Z,15.70
2018-07-06T22:06:02.314Z,15.70
2018-07-06T22:08:30.844Z,15.70
2018-07-06T22:11:00.375Z,15.60
2018-07-06T22:13:28.981Z,15.60
2018-07-06T22:15:57.838Z,15.60
2018-07-06T22:18:26.495Z,15.60
2018-07-06T22:23:23.393Z,15.60
2018-07-06T22:25:51.922Z,15.50
2018-07-06T22:28:20.631Z,15.50
2018-07-06T22:30:49.271Z,15.50
2018-07-06T22:33:17.824Z,15.50
2018-07-06T22:35:46.388Z,15.40
2018-07-06T22:40:43.076Z,15.40
2018-07-06T22:43:11.674Z,15.40
2018-07-06T22:45:40.308Z,15.30
2018-07-06T22:48:08.783Z,15.30
2018-07-06T22:50:37.287Z,15.30
2018-07-06T22:53:05.855Z,15.30
2018-07-06T22:55:34.354Z,15.20
2018-07-06T22:58:02.851Z,15.20
2018-07-06T23:00:31.393Z,15.10
2018-07-06T23:03:03.208Z,15.00
2018-07-06T23:05:31.853Z,15.00
2018-07-06T23:08:00.416Z,15.00
2018-07-06T23:10:29.011Z,15.00
2018-07-06T23:12:57.528Z,15.00
2018-07-06T23:15:26.044Z,15.00
2018-07-06T23:17:54.562Z,14.90
2018-07-06T23:20:23.150Z,14.90
2018-07-06T23:23:03.824Z,14.90
2018-07-06T23:25:34.020Z,14.80
2018-07-06T23:28:02.567Z,14.80
2018-07-06T23:30:31.099Z,14.80
2018-07-06T23:33:00.791Z,14.80
2018-07-06T23:35:29.415Z,14.80
2018-07-06T23:37:58.031Z,14.80
2018-07-06T23:40:26.639Z,14.70
2018-07-06T23:42:55.129Z,14.80
2018-07-06T23:45:23.904Z,14.70
2018-07-06T23:47:52.949Z,14.70
2018-07-06T23:50:22.069Z,14.70
2018-07-06T23:52:50.607Z,14.60
2018-07-06T23:55:19.208Z,14.60
2018-07-06T23:57:48.228Z,14.50
